Time;durP1;ratioP1;P1;durP2;ratioP2;P2;SDS_P1;SDS_P2;PMS_P1;PMS_P2;Temp;Humidity;BMP_temperature;BMP_pressure;BME280_temperature;BME280_humidity;BME280_pressure;Samples;Min_cycle;Max_cycle;Signal;HPM_P1;HPM_P2
2022/10/10 00:01:33;;;;;;;;;;;;;;;66.59;0.22;101124.69;5030662;28;20443;-62
2022/10/10 00:04:00;;;;;;;;;;;;;;;63.85;0.46;101123.47;5030669;28;19914;-62
2022/10/10 00:06:27;;;;;;;;;;;;;;;61.78;2.23;101124.16;5030605;27;19922;-62
2022/10/10 00:08:53;;;;;;;;;;;;;;;59.76;2.63;101131.44;5030693;27;20007;-61
2022/10/10 00:11:21;;;;;;;;;;;;;;;59.70;2.17;101121.38;5029272;28;20008;-62
2022/10/10 00:13:47;;;;;;;;;;;;;;;60.66;1.80;101115.38;5030541;27;19921;-62
2022/10/10 00:16:14;;;;;;;;;;;;;;;60.78;1.75;101115.59;5029350;28;19921;-62
2022/10/10 00:18:41;;;;;;;;;;;;;;;59.03;2.72;101125.16;5030512;27;20382;-62
2022/10/10 00:21:08;;;;;;;;;;;;;;;57.92;3.51;101124.63;5030346;28;19921;-62
2022/10/10 00:23:35;;;;;;;;;;;;;;;58.17;3.32;101124.72;5030134;28;19960;-62
2022/10/10 00:26:01;;;;;;;;;;;;;;;58.88;2.66;101128.94;5030414;28;19921;-62
2022/10/10 00:28:27;;;;;;;;;;;;;;;58.05;3.55;101122.25;5030314;28;19925;-62
2022/10/10 00:30:54;;;;;;;;;;;;;;;57.88;3.60;101119.19;5028969;28;19921;-62
2022/10/10 00:33:20;;;;;;;;;;;;;;;57.23;3.43;101119.69;5030141;28;19969;-61
2022/10/10 00:35:47;;;;;;;;;;;;;;;59.32;2.96;101122.56;5030059;28;20375;-62
2022/10/10 00:38:13;;;;;;;;;;;;;;;60.11;2.20;101116.75;5030368;28;20382;-63
2022/10/10 00:40:50;;;;;;;;;;;;;;;57.02;3.77;101130.00;5033613;27;19928;-61
2022/10/10 00:43:17;;;;;;;;;;;;;;;54.23;5.87;101130.66;5033925;28;20320;-62
2022/10/10 00:45:44;;;;;;;;;;;;;;;53.98;5.22;101130.13;5033644;28;20082;-61
2022/10/10 00:48:19;;;;;;;;;;;;;;;53.22;5.65;101126.84;5033453;28;20012;-61
2022/10/10 00:50:46;;;;;;;;;;;;;;;52.30;6.59;101135.91;5033483;28;19924;-61
2022/10/10 00:53:14;;;;;;;;;;;;;;;52.47;6.57;101127.00;5033452;28;19913;-61
2022/10/10 00:55:41;;;;;;;;;;;;;;;52.69;5.98;101132.44;5033509;28;19921;-62
2022/10/10 00:58:08;;;;;;;;;;;;;;;52.93;6.34;101122.03;5033354;28;19917;-61
2022/10/10 01:00:34;;;;;;;;;;;;;;;52.48;6.38;101140.16;5033551;28;19949;-60
2022/10/10 01:03:00;;;;;;;;;;;;;;;52.38;6.44;101136.84;5048583;28;20007;-61
2022/10/10 01:05:27;;;;;;;;;;;;;;;52.36;6.88;101136.59;5033704;27;19922;-61
2022/10/10 01:07:53;;;;;;;;;;;;;;;51.47;7.27;101150.03;5031942;28;19917;-62
2022/10/10 01:10:21;;;;;;;;;;;;;;;51.80;6.56;101146.00;5033321;28;19925;-63
2022/10/10 01:12:55;;;;;;;;;;;;;;;51.30;7.35;101149.38;5033312;27;20362;-63
2022/10/10 01:15:39;;;;;;;;;;;;;;;51.86;6.79;101160.44;5033254;28;19974;-62
2022/10/10 01:18:24;;;;;;;;;;;;;;;50.61;7.75;101158.31;5033283;28;19921;-63
2022/10/10 01:21:08;;;;;;;;;;;;;;;50.62;7.35;101166.44;5033316;28;19922;-63
2022/10/10 01:23:37;;;;;;;;;;;;;;;50.97;7.01;101162.81;5032825;28;19921;-62
2022/10/10 01:26:10;;;;;;;;;;;;;;;51.10;6.91;101168.00;5032961;28;20438;-62
2022/10/10 01:28:54;;;;;;;;;;;;;;;51.02;7.46;101164.09;5032969;28;20291;-62
2022/10/10 01:31:23;;;;;;;;;;;;;;;50.42;7.24;101170.53;5033220;28;19921;-62
2022/10/10 01:33:49;;;;;;;;;;;;;;;50.59;7.64;101184.09;5033152;27;19977;-62
2022/10/10 01:36:21;;;;;;;;;;;;;;;50.70;7.70;101172.50;5033019;28;19922;-62
2022/10/10 01:38:55;;;;;;;;;;;;;;;50.83;7.80;101178.47;5032985;28;20367;-62
2022/10/10 01:41:25;;;;;;;;;;;;;;;50.93;7.74;101182.59;5032945;27;20259;-62
2022/10/10 01:43:56;;;;;;;;;;;;;;;50.65;7.90;101184.88;5032990;27;19924;-62
2022/10/10 01:46:22;;;;;;;;;;;;;;;50.57;7.92;101189.66;5033015;27;19921;-62
2022/10/10 01:48:50;;;;;;;;;;;;;;;50.62;7.85;101183.81;5032941;27;19928;-62
2022/10/10 01:51:29;;;;;;;;;;;;;;;50.43;7.40;101189.44;5032322;28;19917;-65
2022/10/10 01:54:04;;;;;;;;;;;;;;;50.10;7.82;101190.38;5032641;28;19980;-62
2022/10/10 01:56:37;;;;;;;;;;;;;;;50.34;7.44;101192.66;5032848;28;19978;-62
2022/10/10 01:59:10;;;;;;;;;;;;;;;50.42;8.01;101193.66;5032675;27;19928;-63
2022/10/10 02:01:36;;;;;;;;;;;;;;;49.86;8.14;101196.72;5032650;27;19928;-62
2022/10/10 02:04:13;;;;;;;;;;;;;;;50.22;8.33;101199.78;5032572;28;19917;-62
2022/10/10 02:06:44;;;;;;;;;;;;;;;50.18;8.05;101207.97;5032376;28;19921;-62
2022/10/10 02:09:13;;;;;;;;;;;;;;;50.31;7.42;101210.28;5032646;28;19921;-63
2022/10/10 02:11:40;;;;;;;;;;;;;;;50.34;7.46;101212.13;5032570;28;20012;-63
2022/10/10 02:14:18;;;;;;;;;;;;;;;50.29;7.51;101210.03;5032366;28;19923;-63
2022/10/10 02:16:46;;;;;;;;;;;;;;;50.24;7.67;101216.59;5032402;27;19928;-63
2022/10/10 02:19:15;;;;;;;;;;;;;;;50.13;7.49;101214.56;5032414;28;19918;-61
2022/10/10 02:21:42;;;;;;;;;;;;;;;50.07;7.73;101216.66;5032374;27;19925;-62
2022/10/10 02:24:10;;;;;;;;;;;;;;;50.01;8.23;101228.25;5031869;28;19925;-62
2022/10/10 02:26:38;;;;;;;;;;;;;;;49.27;8.45;101226.69;5032133;28;19922;-63
2022/10/10 02:29:08;;;;;;;;;;;;;;;49.19;8.81;101231.38;5032101;28;19962;-62
2022/10/10 02:31:44;;;;;;;;;;;;;;;48.83;8.48;101232.34;5032216;28;19928;-62
2022/10/10 02:34:18;;;;;;;;;;;;;;;48.54;8.65;101237.25;5032222;28;19930;-62
2022/10/10 02:36:50;;;;;;;;;;;;;;;48.69;9.05;101226.31;5031653;28;19922;-63
2022/10/10 02:39:18;;;;;;;;;;;;;;;49.18;8.79;101240.59;5031557;28;19928;-62
2022/10/10 02:41:46;;;;;;;;;;;;;;;49.64;8.67;101233.53;5031898;27;20001;-62
2022/10/10 02:44:13;;;;;;;;;;;;;;;49.78;8.45;101235.38;5031838;28;19921;-62
2022/10/10 02:46:39;;;;;;;;;;;;;;;49.69;8.11;101235.66;5031836;28;19917;-63
2022/10/10 02:49:09;;;;;;;;;;;;;;;49.50;8.27;101236.16;5031685;28;20378;-62
2022/10/10 02:51:36;;;;;;;;;;;;;;;49.52;8.78;101238.53;5031727;28;19928;-62
2022/10/10 02:54:02;;;;;;;;;;;;;;;49.49;8.30;101233.81;5031859;28;19925;-62
2022/10/10 02:56:28;;;;;;;;;;;;;;;49.56;8.30;101234.06;5031660;28;19921;-62
2022/10/10 02:58:56;;;;;;;;;;;;;;;49.52;8.24;101238.53;5031705;28;19928;-62
2022/10/10 03:01:23;;;;;;;;;;;;;;;49.19;8.83;101234.28;5030711;28;20365;-62
2022/10/10 03:03:49;;;;;;;;;;;;;;;49.23;9.21;101234.84;5030889;27;19925;-62
2022/10/10 03:06:16;;;;;;;;;;;;;;;49.25;9.02;101237.19;5036668;28;19924;-61
2022/10/10 03:08:42;;;;;;;;;;;;;;;49.24;8.86;101241.41;5032527;28;20284;-60
2022/10/10 03:11:09;;;;;;;;;;;;;;;49.20;8.58;101235.88;5031219;28;19921;-60
2022/10/10 03:13:35;;;;;;;;;;;;;;;49.08;9.10;101236.38;5031116;28;19961;-61
2022/10/10 03:16:02;;;;;;;;;;;;;;;49.04;9.04;101238.75;5031082;28;20336;-61
2022/10/10 03:18:28;;;;;;;;;;;;;;;49.03;8.67;101232.19;5030361;28;20328;-61
2022/10/10 03:20:55;;;;;;;;;;;;;;;48.98;8.79;101241.59;5034840;28;19944;-61
2022/10/10 03:23:22;;;;;;;;;;;;;;;48.94;8.85;101236.09;5045554;28;19927;-61
2022/10/10 03:25:48;;;;;;;;;;;;;;;48.89;9.27;101238.94;5038353;28;19928;-60
2022/10/10 03:28:15;;;;;;;;;;;;;;;48.84;9.32;101242.59;5045170;28;20294;-61
2022/10/10 03:30:41;;;;;;;;;;;;;;;48.76;9.36;101230.00;5042732;28;19917;-61
2022/10/10 03:33:08;;;;;;;;;;;;;;;48.77;9.10;101234.44;5046166;28;19921;-61
2022/10/10 03:35:34;;;;;;;;;;;;;;;48.72;8.96;101238.91;5042775;28;19925;-61
2022/10/10 03:38:00;;;;;;;;;;;;;;;48.73;8.85;101232.59;5046981;28;19921;-60
2022/10/10 03:40:27;;;;;;;;;;;;;;;48.79;9.25;101231.81;5048220;28;20022;-61
2022/10/10 03:42:54;;;;;;;;;;;;;;;48.72;8.81;101233.13;5043591;28;20403;-62
2022/10/10 03:45:20;;;;;;;;;;;;;;;48.72;8.98;101242.56;5037625;28;20279;-61
2022/10/10 03:47:46;;;;;;;;;;;;;;;48.73;8.96;101238.38;5044421;28;19921;-61
2022/10/10 03:50:13;;;;;;;;;;;;;;;48.78;9.32;101244.69;5042437;28;20450;-61
2022/10/10 03:52:39;;;;;;;;;;;;;;;48.78;8.75;101250.47;5045738;28;20287;-61
2022/10/10 03:55:05;;;;;;;;;;;;;;;48.73;9.42;101249.13;5039744;28;19921;-61
2022/10/10 03:57:32;;;;;;;;;;;;;;;48.64;9.33;101247.25;5044268;28;20009;-61
2022/10/10 03:59:58;;;;;;;;;;;;;;;48.45;9.65;101251.88;5047024;28;19924;-61
2022/10/10 04:02:24;;;;;;;;;;;;;;;48.40;9.25;101249.75;5042978;28;20378;-61
2022/10/10 04:04:50;;;;;;;;;;;;;;;48.37;9.54;101254.47;5047197;28;19970;-59
2022/10/10 04:07:17;;;;;;;;;;;;;;;48.31;10.19;101258.66;5047525;27;19966;-61
2022/10/10 04:09:43;;;;;;;;;;;;;;;48.10;9.59;101260.84;5039968;28;19921;-60
2022/10/10 04:12:09;;;;;;;;;;;;;;;48.01;10.07;101250.31;5047161;28;20294;-60
2022/10/10 04:14:35;;;;;;;;;;;;;;;48.14;9.78;101255.66;5044475;28;20016;-62
2022/10/10 04:17:02;;;;;;;;;;;;;;;48.20;9.84;101264.31;5042226;28;19944;-61
2022/10/10 04:19:28;;;;;;;;;;;;;;;48.20;9.68;101258.56;5041794;28;20397;-61
2022/10/10 04:21:54;;;;;;;;;;;;;;;48.20;9.64;101258.56;5046201;28;20323;-61
2022/10/10 04:24:20;;;;;;;;;;;;;;;48.20;9.93;101259.34;5043688;28;19921;-61
2022/10/10 04:26:47;;;;;;;;;;;;;;;47.99;9.64;101261.56;5041154;28;19925;-61
2022/10/10 04:29:13;;;;;;;;;;;;;;;48.12;9.76;101261.13;5044576;28;20296;-61
2022/10/10 04:31:39;;;;;;;;;;;;;;;47.99;9.95;101264.47;5043808;28;19921;-62
2022/10/10 04:34:05;;;;;;;;;;;;;;;47.99;9.71;101255.81;5045653;28;19929;-61
2022/10/10 04:36:32;;;;;;;;;;;;;;;47.99;10.27;101266.56;5047111;28;20016;-61
2022/10/10 04:38:58;;;;;;;;;;;;;;;48.04;9.53;101257.94;5041438;28;19937;-61
2022/10/10 04:41:24;;;;;;;;;;;;;;;47.94;10.44;101268.09;5039433;28;19924;-62
2022/10/10 04:43:51;;;;;;;;;;;;;;;47.86;10.17;101266.97;5044011;28;19921;-61
2022/10/10 04:46:17;;;;;;;;;;;;;;;47.88;10.32;101261.50;5042960;28;20393;-61
2022/10/10 04:48:43;;;;;;;;;;;;;;;47.79;10.57;101264.56;5047037;28;19921;-61
2022/10/10 04:51:10;;;;;;;;;;;;;;;47.82;10.80;101270.06;5041573;28;19993;-62
2022/10/10 04:53:36;;;;;;;;;;;;;;;47.68;10.55;101270.22;5041131;28;20011;-62
2022/10/10 04:56:03;;;;;;;;;;;;;;;47.58;10.46;101268.81;5044281;28;20008;-62
2022/10/10 04:58:29;;;;;;;;;;;;;;;47.53;10.68;101271.16;5042167;28;19932;-62
2022/10/10 05:00:55;;;;;;;;;;;;;;;47.72;10.26;101271.56;5039333;28;19946;-62
2022/10/10 05:03:22;;;;;;;;;;;;;;;47.79;10.49;101276.09;5044301;28;19921;-63
2022/10/10 05:05:49;;;;;;;;;;;;;;;47.77;10.61;101276.59;5045763;28;19947;-62
2022/10/10 05:08:15;;;;;;;;;;;;;;;47.67;10.56;101274.41;5042228;28;19916;-62
2022/10/10 05:10:41;;;;;;;;;;;;;;;47.41;10.49;101275.22;5036790;28;19921;-62
2022/10/10 05:13:10;;;;;;;;;;;;;;;47.32;10.53;101272.50;5042022;28;19983;-62
2022/10/10 05:15:37;;;;;;;;;;;;;;;47.28;10.71;101274.81;5045556;28;19964;-61
2022/10/10 05:18:04;;;;;;;;;;;;;;;47.29;11.01;101273.53;5048115;28;19917;-63
2022/10/10 05:20:31;;;;;;;;;;;;;;;47.26;10.61;101271.66;5042032;28;19965;-62
2022/10/10 05:22:57;;;;;;;;;;;;;;;47.08;11.21;101272.75;5040998;28;19928;-62
2022/10/10 05:25:24;;;;;;;;;;;;;;;47.25;11.40;101273.75;5038132;28;19921;-62
2022/10/10 05:27:50;;;;;;;;;;;;;;;47.34;10.95;101267.00;5041773;28;19973;-62
2022/10/10 05:30:16;;;;;;;;;;;;;;;47.28;10.61;101265.41;5040868;27;19972;-61
2022/10/10 05:32:43;;;;;;;;;;;;;;;47.33;10.70;101265.44;5043802;28;19921;-61
2022/10/10 05:35:09;;;;;;;;;;;;;;;47.23;10.71;101269.81;5049682;28;20011;-62
2022/10/10 05:37:35;;;;;;;;;;;;;;;47.19;11.19;101258.50;5041901;28;19917;-61
2022/10/10 05:40:02;;;;;;;;;;;;;;;47.10;11.10;101254.97;5043969;28;19942;-61
2022/10/10 05:42:28;;;;;;;;;;;;;;;47.13;10.82;101260.53;5045452;28;19972;-61
2022/10/10 05:44:55;;;;;;;;;;;;;;;47.20;10.83;101250.66;5049509;28;20306;-61
2022/10/10 05:47:22;;;;;;;;;;;;;;;47.28;10.80;101259.63;5046714;28;19927;-60
2022/10/10 05:49:49;;;;;;;;;;;;;;;47.25;10.70;101250.72;5042777;27;19939;-60
2022/10/10 05:52:15;;;;;;;;;;;;;;;47.21;11.12;101252.22;5049546;28;19936;-60
2022/10/10 05:54:42;;;;;;;;;;;;;;;47.14;11.45;101250.59;5047304;28;19979;-61
2022/10/10 05:57:08;;;;;;;;;;;;;;;47.11;10.87;101263.09;5047012;28;20290;-60
2022/10/10 05:59:34;;;;;;;;;;;;;;;47.03;11.26;101255.41;5049061;28;20517;-60
2022/10/10 06:02:00;;;;;;;;;;;;;;;47.01;11.30;101263.78;5042848;27;19964;-61
2022/10/10 06:04:26;;;;;;;;;;;;;;;47.07;10.82;101253.13;5044465;28;19921;-60
2022/10/10 06:06:53;;;;;;;;;;;;;;;47.10;10.94;101257.88;5046524;28;19921;-60
2022/10/10 06:09:19;;;;;;;;;;;;;;;47.03;11.45;101255.41;5043935;28;19931;-61
2022/10/10 06:11:45;;;;;;;;;;;;;;;46.91;11.49;101261.06;5042313;27;19920;-61
2022/10/10 06:14:11;;;;;;;;;;;;;;;46.97;11.23;101252.47;5043428;28;19921;-61
2022/10/10 06:16:38;;;;;;;;;;;;;;;47.00;11.27;101245.72;5044337;28;19933;-61
2022/10/10 06:19:05;;;;;;;;;;;;;;;47.02;10.85;101250.97;5045665;27;20289;-61
2022/10/10 06:21:31;;;;;;;;;;;;;;;47.06;11.22;101242.91;5045731;28;19936;-61
2022/10/10 06:23:57;;;;;;;;;;;;;;;47.02;10.93;101248.06;5042340;27;19968;-60
2022/10/10 06:26:24;;;;;;;;;;;;;;;46.85;11.00;101251.56;5051273;28;19921;-61
2022/10/10 06:28:50;;;;;;;;;;;;;;;46.82;11.34;101246.81;5046531;28;19921;-61
2022/10/10 06:31:17;;;;;;;;;;;;;;;46.83;11.17;101247.63;5041285;28;20589;-62
2022/10/10 06:33:46;;;;;;;;;;;;;;;46.92;11.43;101248.25;5046957;28;19928;-62
2022/10/10 06:36:13;;;;;;;;;;;;;;;46.82;11.53;101241.06;5040711;28;19967;-62
2022/10/10 06:38:40;;;;;;;;;;;;;;;46.73;11.89;101238.34;5042936;28;19925;-62
2022/10/10 06:41:07;;;;;;;;;;;;;;;46.64;11.33;101238.47;5047477;28;19949;-62
2022/10/10 06:43:34;;;;;;;;;;;;;;;46.68;11.34;101236.16;5045054;28;19972;-60
2022/10/10 06:46:00;;;;;;;;;;;;;;;46.66;11.19;101239.53;5043714;28;19925;-61
2022/10/10 06:48:34;;;;;;;;;;;;;;;46.71;11.62;101229.41;5047302;28;19961;-62
2022/10/10 06:51:00;;;;;;;;;;;;;;;46.70;11.63;101227.84;5045734;28;20366;-62
2022/10/10 06:53:27;;;;;;;;;;;;;;;46.64;11.18;101230.63;5043356;28;20514;-62
2022/10/10 06:55:54;;;;;;;;;;;;;;;46.60;11.14;101235.81;5037010;28;19970;-60
2022/10/10 06:58:22;;;;;;;;;;;;;;;46.57;10.84;101224.53;5046343;28;20332;-60
2022/10/10 07:00:58;;;;;;;;;;;;;;;46.61;11.14;101225.09;5042383;28;19967;-60
2022/10/10 07:03:25;;;;;;;;;;;;;;;46.56;11.53;101222.97;5046015;28;19921;-60
2022/10/10 07:05:52;;;;;;;;;;;;;;;46.51;11.25;101229.44;5041858;28;19928;-60
2022/10/10 07:08:18;;;;;;;;;;;;;;;46.51;11.35;101226.56;5047931;28;19921;-60
2022/10/10 07:10:46;;;;;;;;;;;;;;;46.48;11.15;101221.81;5046499;28;19925;-60
2022/10/10 07:13:12;;;;;;;;;;;;;;;46.42;11.73;101220.94;5044686;28;19997;-61
2022/10/10 07:15:39;;;;;;;;;;;;;;;46.48;11.19;101225.47;5049115;28;19921;-61
2022/10/10 07:18:05;;;;;;;;;;;;;;;46.48;11.59;101219.72;5042596;28;20057;-61
2022/10/10 07:20:32;;;;;;;;;;;;;;;46.47;11.63;101214.47;5044603;27;20007;-61
2022/10/10 07:22:59;;;;;;;;;;;;;;;46.47;11.79;101215.25;5051447;27;19928;-61
2022/10/10 07:25:26;;;;;;;;;;;;;;;46.19;11.41;101223.50;5093926;27;19923;-61
2022/10/10 07:27:52;;;;;;;;;;;;;;;46.20;12.10;101218.56;5055974;27;19920;-61
2022/10/10 07:30:19;;;;;;;;;;;;;;;46.10;11.88;101220.75;5050314;28;19925;-61
2022/10/10 07:32:45;;;;;;;;;;;;;;;46.15;11.66;101210.66;5048607;28;19928;-61
2022/10/10 07:35:11;;;;;;;;;;;;;;;46.09;12.25;101224.91;5050625;28;19916;-61
2022/10/10 07:37:38;;;;;;;;;;;;;;;45.98;12.27;101213.25;5050789;28;20372;-61
2022/10/10 07:40:07;;;;;;;;;;;;;;;45.99;12.18;101214.84;5050803;28;20294;-61
2022/10/10 07:42:33;;;;;;;;;;;;;;;45.84;12.94;101214.88;5050886;28;20373;-61
2022/10/10 07:45:00;;;;;;;;;;;;;;;45.84;12.22;101214.88;5050522;28;19952;-61
2022/10/10 07:47:26;;;;;;;;;;;;;;;45.77;12.36;101216.06;5050302;28;19971;-61
2022/10/10 07:49:52;;;;;;;;;;;;;;;45.86;12.25;101214.38;5050513;28;19941;-61
2022/10/10 07:52:18;;;;;;;;;;;;;;;45.78;12.19;101217.66;5050655;28;20032;-61
2022/10/10 07:54:45;;;;;;;;;;;;;;;45.78;12.19;101214.78;5050578;28;20224;-61
2022/10/10 07:57:11;;;;;;;;;;;;;;;45.84;12.33;101214.09;5050584;28;19920;-61
2022/10/10 07:59:39;;;;;;;;;;;;;;;45.70;12.68;101213.63;5050461;28;19917;-61
2022/10/10 08:02:05;;;;;;;;;;;;;;;45.66;12.47;101213.03;5050461;28;19944;-61
2022/10/10 08:04:32;;;;;;;;;;;;;;;45.67;12.89;101208.09;5050535;28;20003;-61
2022/10/10 08:06:58;;;;;;;;;;;;;;;45.66;12.33;101210.16;5050475;28;19921;-61
2022/10/10 08:09:24;;;;;;;;;;;;;;;45.59;12.49;101215.47;5050501;28;19917;-61
2022/10/10 08:11:50;;;;;;;;;;;;;;;45.40;12.98;101212.81;5050262;28;20453;-61
2022/10/10 08:14:16;;;;;;;;;;;;;;;45.29;13.32;101214.72;5049067;28;19929;-61
2022/10/10 08:16:43;;;;;;;;;;;;;;;45.30;13.32;101210.56;5050526;28;19921;-61
2022/10/10 08:19:09;;;;;;;;;;;;;;;45.47;13.08;101215.31;5050402;28;20352;-61
2022/10/10 08:21:35;;;;;;;;;;;;;;;45.28;13.11;101213.16;5050049;28;19927;-61
2022/10/10 08:24:02;;;;;;;;;;;;;;;45.12;13.00;101214.41;5048784;28;20004;-61
2022/10/10 08:26:28;;;;;;;;;;;;;;;45.18;13.00;101218.94;5050037;28;19920;-61
2022/10/10 08:28:55;;;;;;;;;;;;;;;45.04;13.39;101218.94;5049933;28;19961;-61
2022/10/10 08:31:21;;;;;;;;;;;;;;;45.08;13.09;101214.59;5050230;28;19940;-61
2022/10/10 08:33:48;;;;;;;;;;;;;;;45.11;13.32;101210.75;5049975;28;19962;-61
2022/10/10 08:36:16;;;;;;;;;;;;;;;45.18;12.75;101207.47;5050091;28;20019;-61
2022/10/10 08:38:43;;;;;;;;;;;;;;;45.25;13.37;101211.22;5048819;28;19959;-61
2022/10/10 08:41:09;;;;;;;;;;;;;;;45.28;13.50;101210.28;5049929;28;19924;-61
2022/10/10 08:43:41;;;;;;;;;;;;;;;45.24;13.50;101206.75;5050124;28;19970;-61
2022/10/10 08:46:16;;;;;;;;;;;;;;;45.28;12.79;101213.16;5050098;28;20421;-61
2022/10/10 08:48:44;;;;;;;;;;;;;;;45.39;12.79;101207.59;5049916;28;19965;-61
2022/10/10 08:51:13;;;;;;;;;;;;;;;45.41;12.98;101210.75;5049786;28;19917;-61
2022/10/10 08:53:45;;;;;;;;;;;;;;;45.43;13.17;101213.94;5049772;28;19932;-61
2022/10/10 08:56:16;;;;;;;;;;;;;;;45.41;13.16;101216.50;5049786;28;19921;-61
2022/10/10 08:58:44;;;;;;;;;;;;;;;45.43;13.17;101209.00;5049774;28;19928;-61
2022/10/10 09:01:19;;;;;;;;;;;;;;;45.28;13.06;101211.06;5052222;28;19924;-61
2022/10/10 09:03:47;;;;;;;;;;;;;;;45.13;13.10;101208.16;5053459;28;19940;-61
2022/10/10 09:06:13;;;;;;;;;;;;;;;45.08;13.09;101214.59;5053016;28;20294;-61
2022/10/10 09:08:42;;;;;;;;;;;;;;;45.11;13.40;101210.75;5053172;28;19925;-61
2022/10/10 09:11:31;;;;;;;;;;;;;;;44.93;13.41;101228.13;5053116;28;20377;-61
2022/10/10 09:14:04;;;;;;;;;;;;;;;44.92;13.95;101229.44;5047652;28;20314;-61
2022/10/10 09:16:38;;;;;;;;;;;;;;;44.91;13.43;101224.97;5052960;28;19927;-61
2022/10/10 09:19:13;;;;;;;;;;;;;;;44.99;13.26;101226.16;5052980;28;19920;-61
2022/10/10 09:21:40;;;;;;;;;;;;;;;45.03;13.38;101221.00;5052982;28;20015;-61
2022/10/10 09:24:15;;;;;;;;;;;;;;;45.04;13.28;101219.72;5052590;28;19921;-61
2022/10/10 09:26:50;;;;;;;;;;;;;;;45.09;12.95;101213.31;5052971;28;20430;-61
2022/10/10 09:29:25;;;;;;;;;;;;;;;45.05;12.91;101214.78;5053048;28;20374;-61
2022/10/10 09:31:54;;;;;;;;;;;;;;;44.93;13.10;101205.19;5052795;28;20369;-61
2022/10/10 09:34:36;;;;;;;;;;;;;;;44.76;13.13;101212.66;5052867;28;20004;-61
2022/10/10 09:37:03;;;;;;;;;;;;;;;44.78;13.02;101205.13;5052684;28;19921;-61
2022/10/10 09:39:36;;;;;;;;;;;;;;;44.82;13.12;101216.41;5052517;28;19921;-61
2022/10/10 09:42:03;;;;;;;;;;;;;;;44.63;13.89;101209.25;5052625;28;19925;-61
2022/10/10 09:44:31;;;;;;;;;;;;;;;44.80;13.20;101208.28;5052616;28;20023;-61
2022/10/10 09:46:58;;;;;;;;;;;;;;;44.79;13.38;101209.59;5052299;28;19921;-61
2022/10/10 09:49:24;;;;;;;;;;;;;;;44.77;13.48;101215.03;5052543;28;19936;-61
2022/10/10 09:51:51;;;;;;;;;;;;;;;44.64;13.65;101210.84;5052932;28;20370;-61
2022/10/10 09:54:18;;;;;;;;;;;;;;;44.62;13.83;101208.47;5052349;28;19917;-61
2022/10/10 09:56:50;;;;;;;;;;;;;;;44.58;13.94;101208.66;5052346;28;20374;-61
2022/10/10 09:59:36;;;;;;;;;;;;;;;44.57;13.80;101204.19;5052356;28;19920;-63
2022/10/10 10:02:10;;;;;;;;;;;;;;;44.62;13.49;101201.94;5052278;28;19921;-60
2022/10/10 10:04:37;;;;;;;;;;;;;;;44.52;13.77;101202.00;5052753;28;19956;-61
2022/10/10 10:07:23;;;;;;;;;;;;;;;44.51;13.53;101203.28;5052133;28;20389;-61
2022/10/10 10:09:54;;;;;;;;;;;;;;;44.49;13.74;101200.09;5052098;28;19925;-61
2022/10/10 10:12:25;;;;;;;;;;;;;;;44.47;13.75;101199.78;5052075;28;20001;-61
2022/10/10 10:14:56;;;;;;;;;;;;;;;44.53;13.32;101205.69;5052185;28;19921;-61
2022/10/10 10:17:23;;;;;;;;;;;;;;;44.54;13.59;101202.31;5051998;28;20354;-61
2022/10/10 10:19:50;;;;;;;;;;;;;;;44.43;13.62;101202.06;5052059;28;20367;-61
2022/10/10 10:22:24;;;;;;;;;;;;;;;44.35;13.64;101197.16;5052020;28;19921;-61
2022/10/10 10:24:50;;;;;;;;;;;;;;;44.33;13.75;101203.38;5051810;28;19921;-61
2022/10/10 10:27:18;;;;;;;;;;;;;;;44.31;13.78;101200.22;5051984;28;19921;-61
2022/10/10 10:29:49;;;;;;;;;;;;;;;44.36;13.79;101187.31;5051886;28;19959;-61
2022/10/10 10:32:19;;;;;;;;;;;;;;;44.39;13.61;101195.72;5051860;28;19921;-61
2022/10/10 10:35:01;;;;;;;;;;;;;;;44.35;14.03;101195.13;5051684;28;19917;-61
2022/10/10 10:37:47;;;;;;;;;;;;;;;44.09;13.88;101194.00;5052366;28;19920;-61
2022/10/10 10:40:27;;;;;;;;;;;;;;;44.30;13.77;101190.03;5044670;28;19928;-61
2022/10/10 10:42:54;;;;;;;;;;;;;;;44.39;13.44;101197.78;5051789;28;19944;-61
2022/10/10 10:45:23;;;;;;;;;;;;;;;44.33;13.71;101188.25;5051521;28;20255;-61
2022/10/10 10:48:08;;;;;;;;;;;;;;;44.32;13.84;101184.59;5051538;28;20414;-61
2022/10/10 10:51:06;;;;;;;;;;;;;;;44.31;13.72;101186.69;5051552;28;19927;-61
2022/10/10 10:53:35;;;;;;;;;;;;;;;44.39;14.15;101186.31;5028881;28;20011;-61
2022/10/10 10:56:14;;;;;;;;;;;;;;;44.36;13.80;101185.22;5051599;28;19970;-61
2022/10/10 10:58:56;;;;;;;;;;;;;;;44.37;13.75;101186.03;5051448;28;20007;-61
2022/10/10 11:01:22;;;;;;;;;;;;;;;44.32;13.82;101184.59;5051394;28;19955;-61
2022/10/10 11:03:57;;;;;;;;;;;;;;;44.40;13.88;101185.84;5051421;28;19916;-61
2022/10/10 11:06:23;;;;;;;;;;;;;;;44.31;13.98;101183.03;5051602;28;20031;-61
2022/10/10 11:09:12;;;;;;;;;;;;;;;44.15;13.89;101189.97;5051338;28;20028;-61
2022/10/10 11:11:44;;;;;;;;;;;;;;;44.12;14.18;101193.81;5051330;28;19920;-61
2022/10/10 11:14:10;;;;;;;;;;;;;;;44.13;14.27;101183.16;5051277;28;19925;-61
2022/10/10 11:16:39;;;;;;;;;;;;;;;44.18;13.99;101191.09;5051318;28;19916;-61
2022/10/10 11:19:38;;;;;;;;;;;;;;;44.10;14.11;101192.72;5051258;28;19920;-61
2022/10/10 11:22:18;;;;;;;;;;;;;;;44.09;13.94;101189.06;5028359;28;19921;-61
2022/10/10 11:24:45;;;;;;;;;;;;;;;44.14;14.18;101188.38;5050682;28;20366;-61
2022/10/10 11:27:14;;;;;;;;;;;;;;;44.17;14.09;101189.47;5050981;28;19921;-61
2022/10/10 11:29:59;;;;;;;;;;;;;;;44.04;14.40;101188.91;5050982;28;20334;-61
2022/10/10 11:32:34;;;;;;;;;;;;;;;44.09;14.18;101183.34;5050936;28;20003;-61
2022/10/10 11:35:10;;;;;;;;;;;;;;;44.15;14.39;101181.38;5050836;28;20322;-61
2022/10/10 11:37:40;;;;;;;;;;;;;;;44.12;14.26;101184.44;5050966;28;19985;-61
2022/10/10 11:40:14;;;;;;;;;;;;;;;44.03;14.41;101184.47;5050769;28;20427;-61
2022/10/10 11:42:49;;;;;;;;;;;;;;;44.01;14.87;101188.63;5050707;28;20012;-61
2022/10/10 11:45:18;;;;;;;;;;;;;;;44.07;14.35;101187.94;5050863;28;20078;-61
2022/10/10 11:47:50;;;;;;;;;;;;;;;44.10;14.62;101187.78;5049327;28;19917;-61
2022/10/10 11:50:20;;;;;;;;;;;;;;;44.06;14.61;101190.00;5050648;28;19928;-61
2022/10/10 11:52:54;;;;;;;;;;;;;;;44.07;14.55;101191.59;5050520;28;19923;-61
2022/10/10 11:55:25;;;;;;;;;;;;;;;44.09;14.61;101191.94;5049410;28;19966;-61
2022/10/10 11:58:04;;;;;;;;;;;;;;;43.98;14.89;101188.78;5050449;28;19923;-61
2022/10/10 12:00:34;;;;;;;;;;;;;;;43.96;14.76;101179.88;5050629;28;20378;-61
2022/10/10 12:03:00;;;;;;;;;;;;;;;43.82;14.93;101190.00;5049182;28;20271;-61
2022/10/10 12:05:28;;;;;;;;;;;;;;;43.83;15.13;101188.72;5050393;28;19943;-61
2022/10/10 12:07:57;;;;;;;;;;;;;;;43.83;15.08;101190.78;5050324;28;19916;-61
2022/10/10 12:10:29;;;;;;;;;;;;;;;43.78;14.86;101192.22;5050282;28;19934;-61
2022/10/10 12:12:57;;;;;;;;;;;;;;;43.72;15.09;101189.25;5050308;28;20036;-61
2022/10/10 12:15:28;;;;;;;;;;;;;;;43.64;15.34;101195.78;5050316;28;20426;-61
2022/10/10 12:17:55;;;;;;;;;;;;;;;43.68;15.21;101205.00;5050190;28;19964;-61
2022/10/10 12:20:27;;;;;;;;;;;;;;;43.61;15.43;101199.59;5050262;28;19917;-61
2022/10/10 12:23:05;;;;;;;;;;;;;;;43.60;15.40;101204.53;5048909;28;19921;-61
2022/10/10 12:25:35;;;;;;;;;;;;;;;43.54;15.74;101195.03;5050266;28;19921;-61
2022/10/10 12:28:02;;;;;;;;;;;;;;;43.54;15.61;101199.94;5050130;28;20281;-61
2022/10/10 12:30:28;;;;;;;;;;;;;;;43.54;15.45;101205.69;5050008;28;19929;-61
2022/10/10 12:32:55;;;;;;;;;;;;;;;43.60;15.66;101209.47;5030237;28;19962;-61
2022/10/10 12:35:30;;;;;;;;;;;;;;;43.59;15.67;101205.81;5031628;28;19953;-61
2022/10/10 12:38:10;;;;;;;;;;;;;;;43.52;15.51;101203.31;5033861;28;19921;-61
2022/10/10 12:40:55;;;;;;;;;;;;;;;43.56;15.92;101217.44;5033630;28;19921;-61
2022/10/10 12:43:21;;;;;;;;;;;;;;;43.55;15.85;101207.25;5033664;28;20008;-61
2022/10/10 12:45:55;;;;;;;;;;;;;;;43.57;15.95;101210.44;5032368;28;20275;-61
2022/10/10 12:48:23;;;;;;;;;;;;;;;43.64;15.73;101205.16;5033738;28;19921;-61
2022/10/10 12:50:55;;;;;;;;;;;;;;;43.70;15.75;101214.72;5033709;27;19921;-61